sensor_id;sensor_type;location;lat;lon;timestamp;P1;durP1;ratioP1;P2;durP2;ratioP2
32186;SDS011;18686;53.084;8.872;2023-02-03T00:02:17;106.07;;;34.28;;
32186;SDS011;18686;53.084;8.872;2023-02-03T00:04:45;109.10;;;34.85;;
32186;SDS011;18686;53.084;8.872;2023-02-03T00:07:13;89.95;;;33.13;;
32186;SDS011;18686;53.084;8.872;2023-02-03T00:09:41;126.05;;;36.47;;
32186;SDS011;18686;53.084;8.872;2023-02-03T00:12:12;105.88;;;33.85;;
32186;SDS011;18686;53.084;8.872;2023-02-03T00:14:40;102.88;;;34.67;;
32186;SDS011;18686;53.084;8.872;2023-02-03T00:17:08;98.28;;;32.92;;
32186;SDS011;18686;53.084;8.872;2023-02-03T00:19:37;97.85;;;30.85;;
32186;SDS011;18686;53.084;8.872;2023-02-03T00:22:05;67.68;;;27.67;;
32186;SDS011;18686;53.084;8.872;2023-02-03T00:24:33;86.97;;;29.17;;
32186;SDS011;18686;53.084;8.872;2023-02-03T00:27:01;74.40;;;27.45;;
32186;SDS011;18686;53.084;8.872;2023-02-03T00:29:31;89.72;;;27.77;;
32186;SDS011;18686;53.084;8.872;2023-02-03T00:31:59;99.85;;;27.27;;
32186;SDS011;18686;53.084;8.872;2023-02-03T00:34:28;88.38;;;28.33;;
32186;SDS011;18686;53.084;8.872;2023-02-03T00:36:57;75.20;;;25.98;;
32186;SDS011;18686;53.084;8.872;2023-02-03T00:39:26;95.28;;;26.73;;
32186;SDS011;18686;53.084;8.872;2023-02-03T00:41:54;74.13;;;26.02;;
32186;SDS011;18686;53.084;8.872;2023-02-03T00:44:22;78.85;;;25.98;;
32186;SDS011;18686;53.084;8.872;2023-02-03T00:46:52;83.20;;;26.15;;
32186;SDS011;18686;53.084;8.872;2023-02-03T00:49:21;85.28;;;27.00;;
32186;SDS011;18686;53.084;8.872;2023-02-03T00:51:49;78.35;;;24.25;;
32186;SDS011;18686;53.084;8.872;2023-02-03T00:54:19;94.70;;;25.52;;
32186;SDS011;18686;53.084;8.872;2023-02-03T00:56:47;87.22;;;25.33;;
32186;SDS011;18686;53.084;8.872;2023-02-03T00:59:15;79.25;;;25.02;;
32186;SDS011;18686;53.084;8.872;2023-02-03T01:01:43;75.75;;;23.77;;
32186;SDS011;18686;53.084;8.872;2023-02-03T01:04:13;88.60;;;23.75;;
32186;SDS011;18686;53.084;8.872;2023-02-03T01:06:41;57.10;;;20.00;;
32186;SDS011;18686;53.084;8.872;2023-02-03T01:09:10;81.05;;;20.55;;
32186;SDS011;18686;53.084;8.872;2023-02-03T01:11:39;74.82;;;20.20;;
32186;SDS011;18686;53.084;8.872;2023-02-03T01:14:07;71.20;;;20.65;;
32186;SDS011;18686;53.084;8.872;2023-02-03T01:16:35;57.58;;;19.92;;
32186;SDS011;18686;53.084;8.872;2023-02-03T01:19:04;51.35;;;17.58;;
32186;SDS011;18686;53.084;8.872;2023-02-03T01:21:33;75.72;;;20.00;;
32186;SDS011;18686;53.084;8.872;2023-02-03T01:24:02;62.42;;;18.17;;
32186;SDS011;18686;53.084;8.872;2023-02-03T01:26:30;49.28;;;15.65;;
32186;SDS011;18686;53.084;8.872;2023-02-03T01:28:59;60.15;;;17.38;;
32186;SDS011;18686;53.084;8.872;2023-02-03T01:31:28;52.10;;;17.23;;
32186;SDS011;18686;53.084;8.872;2023-02-03T01:33:58;65.90;;;17.80;;
32186;SDS011;18686;53.084;8.872;2023-02-03T01:36:28;61.65;;;17.30;;
32186;SDS011;18686;53.084;8.872;2023-02-03T01:38:58;60.72;;;17.13;;
32186;SDS011;18686;53.084;8.872;2023-02-03T01:41:27;47.47;;;15.95;;
32186;SDS011;18686;53.084;8.872;2023-02-03T01:43:58;74.20;;;17.85;;
32186;SDS011;18686;53.084;8.872;2023-02-03T01:46:28;43.65;;;16.27;;
32186;SDS011;18686;53.084;8.872;2023-02-03T01:49:01;52.88;;;17.35;;
32186;SDS011;18686;53.084;8.872;2023-02-03T01:51:34;56.75;;;18.23;;
32186;SDS011;18686;53.084;8.872;2023-02-03T01:54:07;54.95;;;17.55;;
32186;SDS011;18686;53.084;8.872;2023-02-03T01:56:39;64.80;;;18.40;;
32186;SDS011;18686;53.084;8.872;2023-02-03T01:59:11;62.25;;;18.67;;
32186;SDS011;18686;53.084;8.872;2023-02-03T02:01:44;73.25;;;21.08;;
32186;SDS011;18686;53.084;8.872;2023-02-03T02:04:13;55.13;;;18.63;;
32186;SDS011;18686;53.084;8.872;2023-02-03T02:06:42;63.42;;;20.25;;
32186;SDS011;18686;53.084;8.872;2023-02-03T02:09:14;59.65;;;20.73;;
32186;SDS011;18686;53.084;8.872;2023-02-03T02:11:43;58.67;;;20.02;;
32186;SDS011;18686;53.084;8.872;2023-02-03T02:14:11;65.60;;;20.88;;
32186;SDS011;18686;53.084;8.872;2023-02-03T02:16:40;67.07;;;20.63;;
32186;SDS011;18686;53.084;8.872;2023-02-03T02:19:23;74.75;;;20.88;;
32186;SDS011;18686;53.084;8.872;2023-02-03T02:22:09;60.15;;;20.75;;
32186;SDS011;18686;53.084;8.872;2023-02-03T02:24:51;54.10;;;18.98;;
32186;SDS011;18686;53.084;8.872;2023-02-03T02:27:43;68.55;;;21.52;;
32186;SDS011;18686;53.084;8.872;2023-02-03T02:30:42;77.05;;;20.48;;
32186;SDS011;18686;53.084;8.872;2023-02-03T02:33:41;58.40;;;19.58;;
32186;SDS011;18686;53.084;8.872;2023-02-03T02:36:17;60.67;;;19.20;;
32186;SDS011;18686;53.084;8.872;2023-02-03T02:38:56;48.47;;;16.67;;
32186;SDS011;18686;53.084;8.872;2023-02-03T02:41:30;50.92;;;17.50;;
32186;SDS011;18686;53.084;8.872;2023-02-03T02:44:06;58.17;;;18.42;;
32186;SDS011;18686;53.084;8.872;2023-02-03T02:46:42;67.22;;;18.20;;
32186;SDS011;18686;53.084;8.872;2023-02-03T02:49:18;47.28;;;16.25;;
32186;SDS011;18686;53.084;8.872;2023-02-03T02:51:50;49.30;;;15.63;;
32186;SDS011;18686;53.084;8.872;2023-02-03T02:54:21;56.42;;;15.52;;
32186;SDS011;18686;53.084;8.872;2023-02-03T02:56:53;55.97;;;14.85;;
32186;SDS011;18686;53.084;8.872;2023-02-03T02:59:25;44.58;;;14.05;;
32186;SDS011;18686;53.084;8.872;2023-02-03T03:01:53;53.60;;;15.25;;
32186;SDS011;18686;53.084;8.872;2023-02-03T03:04:23;58.00;;;14.75;;
32186;SDS011;18686;53.084;8.872;2023-02-03T03:06:56;44.20;;;13.57;;
32186;SDS011;18686;53.084;8.872;2023-02-03T03:12:03;40.90;;;12.90;;
32186;SDS011;18686;53.084;8.872;2023-02-03T03:14:34;36.30;;;11.88;;
32186;SDS011;18686;53.084;8.872;2023-02-03T03:17:08;42.55;;;12.38;;
32186;SDS011;18686;53.084;8.872;2023-02-03T03:19:41;40.45;;;12.00;;
32186;SDS011;18686;53.084;8.872;2023-02-03T03:22:14;46.85;;;12.10;;
32186;SDS011;18686;53.084;8.872;2023-02-03T03:24:45;47.05;;;12.20;;
32186;SDS011;18686;53.084;8.872;2023-02-03T03:27:16;40.08;;;11.13;;
32186;SDS011;18686;53.084;8.872;2023-02-03T03:29:48;39.13;;;12.00;;
32186;SDS011;18686;53.084;8.872;2023-02-03T03:32:21;41.88;;;11.25;;
32186;SDS011;18686;53.084;8.872;2023-02-03T03:34:51;42.75;;;14.40;;
32186;SDS011;18686;53.084;8.872;2023-02-03T03:37:21;40.78;;;12.98;;
32186;SDS011;18686;53.084;8.872;2023-02-03T03:39:55;34.25;;;11.10;;
32186;SDS011;18686;53.084;8.872;2023-02-03T03:42:25;47.53;;;13.68;;
32186;SDS011;18686;53.084;8.872;2023-02-03T03:45:01;39.08;;;11.70;;
32186;SDS011;18686;53.084;8.872;2023-02-03T03:50:05;36.22;;;12.32;;
32186;SDS011;18686;53.084;8.872;2023-02-03T03:52:37;34.03;;;12.70;;
32186;SDS011;18686;53.084;8.872;2023-02-03T03:55:07;33.97;;;12.07;;
32186;SDS011;18686;53.084;8.872;2023-02-03T03:57:38;37.13;;;11.80;;
32186;SDS011;18686;53.084;8.872;2023-02-03T04:00:10;34.42;;;12.23;;
32186;SDS011;18686;53.084;8.872;2023-02-03T04:05:14;34.53;;;11.75;;
32186;SDS011;18686;53.084;8.872;2023-02-03T04:07:43;31.00;;;12.15;;
32186;SDS011;18686;53.084;8.872;2023-02-03T04:10:15;36.50;;;12.85;;
32186;SDS011;18686;53.084;8.872;2023-02-03T04:12:48;43.30;;;12.60;;
32186;SDS011;18686;53.084;8.872;2023-02-03T04:15:17;30.20;;;11.48;;
32186;SDS011;18686;53.084;8.872;2023-02-03T04:17:45;36.78;;;11.93;;
32186;SDS011;18686;53.084;8.872;2023-02-03T04:20:15;35.40;;;12.43;;
32186;SDS011;18686;53.084;8.872;2023-02-03T04:22:45;45.38;;;12.85;;
32186;SDS011;18686;53.084;8.872;2023-02-03T04:25:13;36.80;;;13.30;;
32186;SDS011;18686;53.084;8.872;2023-02-03T04:27:42;33.08;;;12.70;;
32186;SDS011;18686;53.084;8.872;2023-02-03T04:30:10;33.28;;;12.75;;
32186;SDS011;18686;53.084;8.872;2023-02-03T04:32:40;31.98;;;12.70;;
32186;SDS011;18686;53.084;8.872;2023-02-03T04:35:08;31.65;;;12.73;;
32186;SDS011;18686;53.084;8.872;2023-02-03T04:37:37;33.30;;;13.13;;
32186;SDS011;18686;53.084;8.872;2023-02-03T04:40:06;31.27;;;12.23;;
32186;SDS011;18686;53.084;8.872;2023-02-03T04:42:35;25.85;;;12.20;;
32186;SDS011;18686;53.084;8.872;2023-02-03T04:45:05;32.85;;;11.60;;
32186;SDS011;18686;53.084;8.872;2023-02-03T04:47:35;36.63;;;11.88;;
32186;SDS011;18686;53.084;8.872;2023-02-03T04:50:04;41.35;;;11.02;;
32186;SDS011;18686;53.084;8.872;2023-02-03T04:52:33;34.30;;;11.32;;
32186;SDS011;18686;53.084;8.872;2023-02-03T04:55:02;42.00;;;11.88;;
32186;SDS011;18686;53.084;8.872;2023-02-03T04:57:31;29.45;;;10.75;;
32186;SDS011;18686;53.084;8.872;2023-02-03T05:00:00;25.90;;;9.93;;
32186;SDS011;18686;53.084;8.872;2023-02-03T05:02:28;26.88;;;8.82;;
32186;SDS011;18686;53.084;8.872;2023-02-03T05:04:56;30.45;;;9.75;;
32186;SDS011;18686;53.084;8.872;2023-02-03T05:07:24;27.10;;;9.38;;
32186;SDS011;18686;53.084;8.872;2023-02-03T05:09:52;26.35;;;8.93;;
32186;SDS011;18686;53.084;8.872;2023-02-03T05:12:22;28.05;;;8.98;;
32186;SDS011;18686;53.084;8.872;2023-02-03T05:14:50;31.30;;;8.80;;
32186;SDS011;18686;53.084;8.872;2023-02-03T05:17:18;26.35;;;8.80;;
32186;SDS011;18686;53.084;8.872;2023-02-03T05:19:46;37.53;;;8.65;;
32186;SDS011;18686;53.084;8.872;2023-02-03T05:22:14;26.30;;;8.93;;
32186;SDS011;18686;53.084;8.872;2023-02-03T05:24:43;17.25;;;7.63;;
32186;SDS011;18686;53.084;8.872;2023-02-03T05:27:11;26.00;;;8.00;;
32186;SDS011;18686;53.084;8.872;2023-02-03T05:29:41;21.42;;;7.43;;
32186;SDS011;18686;53.084;8.872;2023-02-03T05:32:09;19.13;;;7.68;;
32186;SDS011;18686;53.084;8.872;2023-02-03T05:34:37;20.08;;;7.15;;
32186;SDS011;18686;53.084;8.872;2023-02-03T05:37:07;26.33;;;7.72;;
32186;SDS011;18686;53.084;8.872;2023-02-03T05:39:36;19.23;;;6.43;;
32186;SDS011;18686;53.084;8.872;2023-02-03T05:42:04;24.08;;;7.32;;
32186;SDS011;18686;53.084;8.872;2023-02-03T05:44:31;27.25;;;7.97;;
32186;SDS011;18686;53.084;8.872;2023-02-03T05:47:01;24.33;;;8.20;;
32186;SDS011;18686;53.084;8.872;2023-02-03T05:49:29;29.27;;;7.80;;
32186;SDS011;18686;53.084;8.872;2023-02-03T05:51:57;27.60;;;7.22;;
32186;SDS011;18686;53.084;8.872;2023-02-03T05:54:26;28.65;;;7.70;;
32186;SDS011;18686;53.084;8.872;2023-02-03T05:56:54;22.98;;;7.55;;
32186;SDS011;18686;53.084;8.872;2023-02-03T05:59:22;21.27;;;7.43;;
32186;SDS011;18686;53.084;8.872;2023-02-03T06:01:50;30.33;;;7.15;;
32186;SDS011;18686;53.084;8.872;2023-02-03T06:04:20;23.67;;;8.25;;
32186;SDS011;18686;53.084;8.872;2023-02-03T06:06:48;21.17;;;7.93;;
32186;SDS011;18686;53.084;8.872;2023-02-03T06:09:16;23.50;;;7.00;;
32186;SDS011;18686;53.084;8.872;2023-02-03T06:11:44;22.83;;;6.85;;
32186;SDS011;18686;53.084;8.872;2023-02-03T06:14:12;28.08;;;7.40;;
32186;SDS011;18686;53.084;8.872;2023-02-03T06:16:41;19.73;;;6.75;;
32186;SDS011;18686;53.084;8.872;2023-02-03T06:19:09;23.10;;;7.38;;
32186;SDS011;18686;53.084;8.872;2023-02-03T06:21:41;23.75;;;8.05;;
32186;SDS011;18686;53.084;8.872;2023-02-03T06:24:09;26.17;;;7.70;;
32186;SDS011;18686;53.084;8.872;2023-02-03T06:26:37;29.92;;;8.18;;
32186;SDS011;18686;53.084;8.872;2023-02-03T06:29:06;21.60;;;8.32;;
32186;SDS011;18686;53.084;8.872;2023-02-03T06:31:34;33.38;;;8.75;;
32186;SDS011;18686;53.084;8.872;2023-02-03T06:34:02;21.60;;;8.70;;
32186;SDS011;18686;53.084;8.872;2023-02-03T06:36:30;25.77;;;9.40;;
32186;SDS011;18686;53.084;8.872;2023-02-03T06:39:00;29.63;;;8.93;;
32186;SDS011;18686;53.084;8.872;2023-02-03T06:41:28;30.23;;;10.35;;
32186;SDS011;18686;53.084;8.872;2023-02-03T06:43:58;30.48;;;9.70;;
32186;SDS011;18686;53.084;8.872;2023-02-03T06:46:26;27.50;;;9.60;;
32186;SDS011;18686;53.084;8.872;2023-02-03T06:48:55;28.23;;;9.10;;
32186;SDS011;18686;53.084;8.872;2023-02-03T06:51:24;27.35;;;9.05;;
32186;SDS011;18686;53.084;8.872;2023-02-03T06:53:52;24.55;;;7.85;;
32186;SDS011;18686;53.084;8.872;2023-02-03T06:56:21;27.38;;;8.48;;
32186;SDS011;18686;53.084;8.872;2023-02-03T06:58:49;28.35;;;8.50;;
32186;SDS011;18686;53.084;8.872;2023-02-03T07:01:18;29.05;;;7.88;;
32186;SDS011;18686;53.084;8.872;2023-02-03T07:03:46;23.00;;;7.55;;
32186;SDS011;18686;53.084;8.872;2023-02-03T07:06:14;23.70;;;7.13;;
32186;SDS011;18686;53.084;8.872;2023-02-03T07:08:42;22.90;;;6.75;;
32186;SDS011;18686;53.084;8.872;2023-02-03T07:11:11;16.90;;;6.25;;
32186;SDS011;18686;53.084;8.872;2023-02-03T07:13:40;27.02;;;6.00;;
32186;SDS011;18686;53.084;8.872;2023-02-03T07:16:09;16.92;;;5.47;;
32186;SDS011;18686;53.084;8.872;2023-02-03T07:18:37;20.08;;;5.22;;
32186;SDS011;18686;53.084;8.872;2023-02-03T07:21:13;18.85;;;4.68;;
32186;SDS011;18686;53.084;8.872;2023-02-03T07:23:45;21.33;;;4.97;;
32186;SDS011;18686;53.084;8.872;2023-02-03T07:26:13;20.17;;;4.85;;
32186;SDS011;18686;53.084;8.872;2023-02-03T07:28:44;17.92;;;4.35;;
32186;SDS011;18686;53.084;8.872;2023-02-03T07:31:12;18.98;;;4.07;;
32186;SDS011;18686;53.084;8.872;2023-02-03T07:33:40;16.35;;;3.88;;
32186;SDS011;18686;53.084;8.872;2023-02-03T07:36:09;17.80;;;3.88;;
32186;SDS011;18686;53.084;8.872;2023-02-03T07:38:37;16.77;;;3.67;;
32186;SDS011;18686;53.084;8.872;2023-02-03T07:41:05;13.50;;;3.40;;
32186;SDS011;18686;53.084;8.872;2023-02-03T07:43:34;22.92;;;4.20;;
32186;SDS011;18686;53.084;8.872;2023-02-03T07:46:04;24.65;;;4.55;;
32186;SDS011;18686;53.084;8.872;2023-02-03T07:48:32;20.17;;;4.30;;
32186;SDS011;18686;53.084;8.872;2023-02-03T07:51:02;20.20;;;3.75;;
32186;SDS011;18686;53.084;8.872;2023-02-03T07:53:30;15.25;;;3.22;;
32186;SDS011;18686;53.084;8.872;2023-02-03T07:55:59;12.43;;;3.22;;
32186;SDS011;18686;53.084;8.872;2023-02-03T07:58:28;12.15;;;2.85;;
32186;SDS011;18686;53.084;8.872;2023-02-03T08:00:57;18.08;;;3.85;;
32186;SDS011;18686;53.084;8.872;2023-02-03T08:03:27;19.88;;;3.67;;
32186;SDS011;18686;53.084;8.872;2023-02-03T08:05:55;14.27;;;3.45;;
32186;SDS011;18686;53.084;8.872;2023-02-03T08:08:23;18.58;;;2.90;;
32186;SDS011;18686;53.084;8.872;2023-02-03T08:10:53;19.02;;;3.35;;
32186;SDS011;18686;53.084;8.872;2023-02-03T08:13:22;16.92;;;3.20;;
32186;SDS011;18686;53.084;8.872;2023-02-03T08:15:50;13.15;;;3.92;;
32186;SDS011;18686;53.084;8.872;2023-02-03T08:18:18;19.50;;;3.17;;
32186;SDS011;18686;53.084;8.872;2023-02-03T08:20:48;14.50;;;2.65;;
32186;SDS011;18686;53.084;8.872;2023-02-03T08:23:16;17.55;;;3.33;;
32186;SDS011;18686;53.084;8.872;2023-02-03T08:25:44;21.92;;;2.90;;
32186;SDS011;18686;53.084;8.872;2023-02-03T08:28:17;16.30;;;2.90;;
32186;SDS011;18686;53.084;8.872;2023-02-03T08:30:46;12.20;;;2.92;;
32186;SDS011;18686;53.084;8.872;2023-02-03T08:33:14;14.88;;;2.90;;
32186;SDS011;18686;53.084;8.872;2023-02-03T08:35:44;19.10;;;3.42;;
32186;SDS011;18686;53.084;8.872;2023-02-03T08:38:16;14.50;;;3.38;;
32186;SDS011;18686;53.084;8.872;2023-02-03T08:40:45;27.70;;;3.03;;
32186;SDS011;18686;53.084;8.872;2023-02-03T08:43:13;20.48;;;3.15;;
32186;SDS011;18686;53.084;8.872;2023-02-03T08:45:42;17.45;;;3.05;;
32186;SDS011;18686;53.084;8.872;2023-02-03T08:48:10;16.05;;;3.60;;
32186;SDS011;18686;53.084;8.872;2023-02-03T08:50:40;18.65;;;4.00;;
32186;SDS011;18686;53.084;8.872;2023-02-03T08:53:10;30.65;;;3.92;;
32186;SDS011;18686;53.084;8.872;2023-02-03T08:55:39;19.15;;;3.33;;
32186;SDS011;18686;53.084;8.872;2023-02-03T08:58:07;15.13;;;3.25;;
32186;SDS011;18686;53.084;8.872;2023-02-03T09:00:36;23.23;;;3.60;;
32186;SDS011;18686;53.084;8.872;2023-02-03T09:03:04;24.60;;;3.88;;
32186;SDS011;18686;53.084;8.872;2023-02-03T09:05:32;27.85;;;3.65;;
32186;SDS011;18686;53.084;8.872;2023-02-03T09:08:00;24.10;;;3.45;;
32186;SDS011;18686;53.084;8.872;2023-02-03T09:10:29;23.63;;;3.85;;
32186;SDS011;18686;53.084;8.872;2023-02-03T09:12:58;25.25;;;3.55;;
32186;SDS011;18686;53.084;8.872;2023-02-03T09:15:27;18.15;;;3.75;;
32186;SDS011;18686;53.084;8.872;2023-02-03T09:17:55;17.35;;;3.25;;
32186;SDS011;18686;53.084;8.872;2023-02-03T09:20:23;25.27;;;4.65;;
32186;SDS011;18686;53.084;8.872;2023-02-03T09:22:52;27.77;;;3.97;;
32186;SDS011;18686;53.084;8.872;2023-02-03T09:25:20;26.67;;;4.00;;
32186;SDS011;18686;53.084;8.872;2023-02-03T09:27:49;25.50;;;3.58;;
32186;SDS011;18686;53.084;8.872;2023-02-03T09:30:18;32.40;;;4.82;;
32186;SDS011;18686;53.084;8.872;2023-02-03T09:32:46;27.95;;;4.78;;
32186;SDS011;18686;53.084;8.872;2023-02-03T09:35:19;23.63;;;3.90;;
32186;SDS011;18686;53.084;8.872;2023-02-03T09:37:47;21.52;;;3.45;;
32186;SDS011;18686;53.084;8.872;2023-02-03T09:40:17;20.42;;;3.50;;
32186;SDS011;18686;53.084;8.872;2023-02-03T09:42:58;23.15;;;5.18;;
32186;SDS011;18686;53.084;8.872;2023-02-03T09:45:36;28.10;;;5.50;;
32186;SDS011;18686;53.084;8.872;2023-02-03T09:48:05;32.45;;;4.82;;
32186;SDS011;18686;53.084;8.872;2023-02-03T09:53:11;27.05;;;4.28;;
32186;SDS011;18686;53.084;8.872;2023-02-03T09:55:49;20.33;;;4.30;;
32186;SDS011;18686;53.084;8.872;2023-02-03T09:58:17;23.92;;;4.38;;
32186;SDS011;18686;53.084;8.872;2023-02-03T10:00:50;22.65;;;4.22;;
32186;SDS011;18686;53.084;8.872;2023-02-03T10:03:23;20.67;;;4.07;;
32186;SDS011;18686;53.084;8.872;2023-02-03T10:06:02;22.35;;;4.35;;
32186;SDS011;18686;53.084;8.872;2023-02-03T10:11:54;22.00;;;4.47;;
32186;SDS011;18686;53.084;8.872;2023-02-03T10:14:43;23.60;;;4.35;;
32186;SDS011;18686;53.084;8.872;2023-02-03T10:17:25;25.50;;;4.93;;
32186;SDS011;18686;53.084;8.872;2023-02-03T10:20:00;17.42;;;4.95;;
32186;SDS011;18686;53.084;8.872;2023-02-03T10:22:32;32.47;;;6.32;;
32186;SDS011;18686;53.084;8.872;2023-02-03T10:25:06;29.33;;;5.68;;
32186;SDS011;18686;53.084;8.872;2023-02-03T10:27:43;22.42;;;6.22;;
32186;SDS011;18686;53.084;8.872;2023-02-03T10:30:16;24.25;;;5.50;;
32186;SDS011;18686;53.084;8.872;2023-02-03T10:32:49;25.20;;;5.43;;
32186;SDS011;18686;53.084;8.872;2023-02-03T10:37:54;24.85;;;4.78;;
32186;SDS011;18686;53.084;8.872;2023-02-03T10:40:25;23.83;;;5.18;;
32186;SDS011;18686;53.084;8.872;2023-02-03T10:42:55;24.75;;;5.60;;
32186;SDS011;18686;53.084;8.872;2023-02-03T10:45:40;28.35;;;6.07;;
32186;SDS011;18686;53.084;8.872;2023-02-03T10:48:12;25.95;;;5.28;;
32186;SDS011;18686;53.084;8.872;2023-02-03T10:50:45;28.00;;;5.70;;
32186;SDS011;18686;53.084;8.872;2023-02-03T10:53:21;19.20;;;4.43;;
32186;SDS011;18686;53.084;8.872;2023-02-03T10:55:58;18.08;;;4.80;;
32186;SDS011;18686;53.084;8.872;2023-02-03T10:58:28;22.73;;;5.55;;
32186;SDS011;18686;53.084;8.872;2023-02-03T11:01:06;26.30;;;5.18;;
32186;SDS011;18686;53.084;8.872;2023-02-03T11:03:40;25.88;;;5.90;;
32186;SDS011;18686;53.084;8.872;2023-02-03T11:06:12;24.75;;;5.38;;
32186;SDS011;18686;53.084;8.872;2023-02-03T11:08:42;19.88;;;4.70;;
32186;SDS011;18686;53.084;8.872;2023-02-03T11:11:13;31.40;;;6.10;;
32186;SDS011;18686;53.084;8.872;2023-02-03T11:13:53;26.38;;;5.50;;
32186;SDS011;18686;53.084;8.872;2023-02-03T11:16:22;20.33;;;4.90;;
32186;SDS011;18686;53.084;8.872;2023-02-03T11:18:55;23.95;;;5.10;;
32186;SDS011;18686;53.084;8.872;2023-02-03T11:21:27;23.15;;;5.45;;
32186;SDS011;18686;53.084;8.872;2023-02-03T11:24:00;17.10;;;4.85;;
32186;SDS011;18686;53.084;8.872;2023-02-03T11:26:32;23.98;;;5.50;;
32186;SDS011;18686;53.084;8.872;2023-02-03T11:29:03;23.27;;;5.60;;
32186;SDS011;18686;53.084;8.872;2023-02-03T11:31:34;25.92;;;5.10;;
32186;SDS011;18686;53.084;8.872;2023-02-03T11:34:05;26.02;;;5.53;;
32186;SDS011;18686;53.084;8.872;2023-02-03T11:36:42;22.02;;;4.70;;
32186;SDS011;18686;53.084;8.872;2023-02-03T11:39:16;26.60;;;5.88;;
32186;SDS011;18686;53.084;8.872;2023-02-03T11:41:50;27.83;;;5.63;;
32186;SDS011;18686;53.084;8.872;2023-02-03T11:44:20;27.77;;;5.03;;
32186;SDS011;18686;53.084;8.872;2023-02-03T11:46:53;23.67;;;5.97;;
32186;SDS011;18686;53.084;8.872;2023-02-03T11:52:46;22.10;;;5.00;;
32186;SDS011;18686;53.084;8.872;2023-02-03T11:55:22;30.35;;;4.90;;
32186;SDS011;18686;53.084;8.872;2023-02-03T11:58:02;30.27;;;5.10;;
32186;SDS011;18686;53.084;8.872;2023-02-03T12:01:06;24.90;;;4.68;;
32186;SDS011;18686;53.084;8.872;2023-02-03T12:03:51;25.98;;;4.72;;
32186;SDS011;18686;53.084;8.872;2023-02-03T12:09:36;21.92;;;4.60;;
32186;SDS011;18686;53.084;8.872;2023-02-03T12:12:18;25.70;;;5.63;;
32186;SDS011;18686;53.084;8.872;2023-02-03T12:15:02;24.58;;;5.72;;
32186;SDS011;18686;53.084;8.872;2023-02-03T12:20:40;19.98;;;5.10;;
32186;SDS011;18686;53.084;8.872;2023-02-03T12:23:23;18.55;;;4.40;;
32186;SDS011;18686;53.084;8.872;2023-02-03T12:26:04;24.10;;;4.57;;
32186;SDS011;18686;53.084;8.872;2023-02-03T12:28:44;25.60;;;5.15;;
32186;SDS011;18686;53.084;8.872;2023-02-03T12:31:20;23.52;;;5.05;;
32186;SDS011;18686;53.084;8.872;2023-02-03T12:33:57;22.75;;;4.75;;
32186;SDS011;18686;53.084;8.872;2023-02-03T12:36:32;21.70;;;4.22;;
32186;SDS011;18686;53.084;8.872;2023-02-03T12:39:05;24.02;;;4.53;;
32186;SDS011;18686;53.084;8.872;2023-02-03T12:41:43;23.50;;;4.60;;
32186;SDS011;18686;53.084;8.872;2023-02-03T12:44:17;25.02;;;4.75;;
32186;SDS011;18686;53.084;8.872;2023-02-03T12:46:49;22.33;;;4.50;;
32186;SDS011;18686;53.084;8.872;2023-02-03T12:49:26;26.52;;;5.07;;
32186;SDS011;18686;53.084;8.872;2023-02-03T12:52:02;20.65;;;4.70;;
32186;SDS011;18686;53.084;8.872;2023-02-03T12:54:38;19.30;;;4.65;;
32186;SDS011;18686;53.084;8.872;2023-02-03T12:57:16;23.63;;;4.30;;
32186;SDS011;18686;53.084;8.872;2023-02-03T12:59:53;20.55;;;4.28;;
32186;SDS011;18686;53.084;8.872;2023-02-03T13:02:47;25.65;;;4.75;;
32186;SDS011;18686;53.084;8.872;2023-02-03T13:05:27;21.13;;;4.97;;
32186;SDS011;18686;53.084;8.872;2023-02-03T13:08:02;23.38;;;4.90;;
32186;SDS011;18686;53.084;8.872;2023-02-03T13:10:38;25.60;;;4.90;;
32186;SDS011;18686;53.084;8.872;2023-02-03T13:13:16;26.05;;;4.68;;
32186;SDS011;18686;53.084;8.872;2023-02-03T13:15:52;26.98;;;4.80;;
32186;SDS011;18686;53.084;8.872;2023-02-03T13:18:24;20.63;;;4.45;;
32186;SDS011;18686;53.084;8.872;2023-02-03T13:20:56;22.85;;;3.88;;
32186;SDS011;18686;53.084;8.872;2023-02-03T13:23:24;20.90;;;4.00;;
32186;SDS011;18686;53.084;8.872;2023-02-03T13:25:59;27.10;;;4.25;;
32186;SDS011;18686;53.084;8.872;2023-02-03T13:28:54;22.33;;;4.22;;
32186;SDS011;18686;53.084;8.872;2023-02-03T13:31:34;28.27;;;5.03;;
32186;SDS011;18686;53.084;8.872;2023-02-03T13:37:21;28.30;;;4.63;;
32186;SDS011;18686;53.084;8.872;2023-02-03T13:40:15;27.33;;;5.22;;
32186;SDS011;18686;53.084;8.872;2023-02-03T13:42:51;28.30;;;5.38;;
32186;SDS011;18686;53.084;8.872;2023-02-03T13:45:26;29.10;;;5.22;;
32186;SDS011;18686;53.084;8.872;2023-02-03T13:47:58;26.10;;;4.90;;
32186;SDS011;18686;53.084;8.872;2023-02-03T13:50:35;25.48;;;5.13;;
32186;SDS011;18686;53.084;8.872;2023-02-03T13:53:04;25.95;;;5.07;;
32186;SDS011;18686;53.084;8.872;2023-02-03T13:55:34;34.42;;;6.05;;
32186;SDS011;18686;53.084;8.872;2023-02-03T13:58:05;32.17;;;6.22;;
32186;SDS011;18686;53.084;8.872;2023-02-03T14:01:01;31.92;;;6.65;;
32186;SDS011;18686;53.084;8.872;2023-02-03T14:03:59;30.15;;;5.53;;
32186;SDS011;18686;53.084;8.872;2023-02-03T14:09:38;26.90;;;6.00;;
32186;SDS011;18686;53.084;8.872;2023-02-03T14:12:20;30.08;;;5.78;;
32186;SDS011;18686;53.084;8.872;2023-02-03T14:15:00;31.63;;;4.80;;
32186;SDS011;18686;53.084;8.872;2023-02-03T14:23:25;26.90;;;5.32;;
32186;SDS011;18686;53.084;8.872;2023-02-03T14:25:56;23.15;;;4.53;;
32186;SDS011;18686;53.084;8.872;2023-02-03T14:28:28;24.52;;;5.05;;
32186;SDS011;18686;53.084;8.872;2023-02-03T14:31:12;28.60;;;4.93;;
32186;SDS011;18686;53.084;8.872;2023-02-03T14:33:44;23.98;;;4.97;;
32186;SDS011;18686;53.084;8.872;2023-02-03T14:36:41;25.20;;;5.25;;
32186;SDS011;18686;53.084;8.872;2023-02-03T14:48:56;20.70;;;4.30;;
32186;SDS011;18686;53.084;8.872;2023-02-03T14:51:38;25.73;;;4.15;;
32186;SDS011;18686;53.084;8.872;2023-02-03T14:54:29;19.27;;;4.63;;
32186;SDS011;18686;53.084;8.872;2023-02-03T14:57:10;27.80;;;5.07;;
32186;SDS011;18686;53.084;8.872;2023-02-03T14:59:49;25.80;;;4.68;;
32186;SDS011;18686;53.084;8.872;2023-02-03T15:02:23;28.02;;;4.82;;
32186;SDS011;18686;53.084;8.872;2023-02-03T15:05:32;31.08;;;5.50;;
32186;SDS011;18686;53.084;8.872;2023-02-03T15:08:03;30.17;;;4.93;;
32186;SDS011;18686;53.084;8.872;2023-02-03T15:10:53;28.60;;;5.10;;
32186;SDS011;18686;53.084;8.872;2023-02-03T15:13:24;26.52;;;5.57;;
32186;SDS011;18686;53.084;8.872;2023-02-03T15:15:54;30.85;;;4.97;;
32186;SDS011;18686;53.084;8.872;2023-02-03T15:18:27;21.38;;;4.82;;
32186;SDS011;18686;53.084;8.872;2023-02-03T15:20:57;32.22;;;5.10;;
32186;SDS011;18686;53.084;8.872;2023-02-03T15:23:27;23.35;;;4.97;;
32186;SDS011;18686;53.084;8.872;2023-02-03T15:25:59;28.73;;;5.43;;
32186;SDS011;18686;53.084;8.872;2023-02-03T15:28:28;22.70;;;4.07;;
32186;SDS011;18686;53.084;8.872;2023-02-03T15:30:57;24.05;;;4.72;;
32186;SDS011;18686;53.084;8.872;2023-02-03T15:33:30;28.30;;;5.13;;
32186;SDS011;18686;53.084;8.872;2023-02-03T15:36:01;28.60;;;4.28;;
32186;SDS011;18686;53.084;8.872;2023-02-03T15:38:36;24.88;;;4.57;;
32186;SDS011;18686;53.084;8.872;2023-02-03T15:41:14;25.67;;;4.40;;
32186;SDS011;18686;53.084;8.872;2023-02-03T15:43:46;29.25;;;4.93;;
32186;SDS011;18686;53.084;8.872;2023-02-03T15:46:19;30.00;;;4.95;;
32186;SDS011;18686;53.084;8.872;2023-02-03T15:48:55;26.65;;;4.95;;